sensor_id;sensor_type;location;lat;lon;timestamp;P1;durP1;ratioP1;P2;durP2;ratioP2
63406;SDS011;49543;45.892;10.838;2022-10-17T08:21:50;23.60;;;18.35;;
63406;SDS011;49543;45.892;10.838;2022-10-17T08:24:18;24.98;;;18.42;;
63406;SDS011;49543;45.892;10.838;2022-10-17T08:26:44;21.73;;;16.63;;
63406;SDS011;49543;45.892;10.838;2022-10-17T08:29:13;20.35;;;15.77;;
63406;SDS011;49543;45.892;10.838;2022-10-17T08:31:39;23.13;;;17.48;;
63406;SDS011;49543;45.892;10.838;2022-10-17T08:34:04;23.65;;;18.02;;
63406;SDS011;49543;45.892;10.838;2022-10-17T08:36:30;21.02;;;16.45;;
63406;SDS011;49543;45.892;10.838;2022-10-17T08:38:55;18.17;;;14.27;;
63406;SDS011;49543;45.892;10.838;2022-10-17T08:46:46;22.75;;;18.73;;
63406;SDS011;49543;45.892;10.838;2022-10-17T08:49:22;26.25;;;18.38;;
63406;SDS011;49543;45.892;10.838;2022-10-17T08:52:15;22.00;;;16.17;;
63406;SDS011;49543;45.892;10.838;2022-10-17T08:55:02;21.58;;;17.27;;
63406;SDS011;49543;45.892;10.838;2022-10-17T08:57:28;21.23;;;17.27;;
63406;SDS011;49543;45.892;10.838;2022-10-17T08:59:54;26.85;;;19.50;;
63406;SDS011;49543;45.892;10.838;2022-10-17T09:13:42;17.95;;;14.15;;
63406;SDS011;49543;45.892;10.838;2022-10-17T09:18:56;20.83;;;15.03;;
63406;SDS011;49543;45.892;10.838;2022-10-17T09:21:32;20.30;;;14.13;;
63406;SDS011;49543;45.892;10.838;2022-10-17T09:24:07;18.45;;;14.50;;
63406;SDS011;49543;45.892;10.838;2022-10-17T09:26:38;18.92;;;15.13;;
63406;SDS011;49543;45.892;10.838;2022-10-17T09:29:04;16.52;;;13.23;;
63406;SDS011;49543;45.892;10.838;2022-10-17T09:31:41;16.08;;;13.05;;
63406;SDS011;49543;45.892;10.838;2022-10-17T09:34:11;18.33;;;15.23;;
63406;SDS011;49543;45.892;10.838;2022-10-17T09:36:37;13.80;;;12.07;;
63406;SDS011;49543;45.892;10.838;2022-10-17T09:39:04;17.33;;;14.25;;
63406;SDS011;49543;45.892;10.838;2022-10-17T09:41:43;20.92;;;16.27;;
63406;SDS011;49543;45.892;10.838;2022-10-17T09:44:35;15.75;;;13.52;;
63406;SDS011;49543;45.892;10.838;2022-10-17T09:47:25;16.67;;;13.38;;
63406;SDS011;49543;45.892;10.838;2022-10-17T09:50:09;17.25;;;12.88;;
63406;SDS011;49543;45.892;10.838;2022-10-17T09:53:02;17.35;;;14.68;;
63406;SDS011;49543;45.892;10.838;2022-10-17T09:55:37;16.63;;;13.80;;
63406;SDS011;49543;45.892;10.838;2022-10-17T10:00:35;16.30;;;14.15;;
63406;SDS011;49543;45.892;10.838;2022-10-17T10:05:36;16.15;;;13.63;;
63406;SDS011;49543;45.892;10.838;2022-10-17T10:08:13;15.95;;;13.18;;
63406;SDS011;49543;45.892;10.838;2022-10-17T10:10:40;16.77;;;13.82;;
63406;SDS011;49543;45.892;10.838;2022-10-17T10:15:39;22.55;;;15.93;;
63406;SDS011;49543;45.892;10.838;2022-10-17T10:21:24;16.00;;;13.68;;
63406;SDS011;49543;45.892;10.838;2022-10-17T10:24:02;14.18;;;12.68;;
63406;SDS011;49543;45.892;10.838;2022-10-17T10:26:36;14.85;;;12.15;;
63406;SDS011;49543;45.892;10.838;2022-10-17T10:31:54;14.20;;;12.70;;
63406;SDS011;49543;45.892;10.838;2022-10-17T10:34:28;14.90;;;12.80;;
63406;SDS011;49543;45.892;10.838;2022-10-17T10:37:00;20.92;;;13.90;;
63406;SDS011;49543;45.892;10.838;2022-10-17T10:39:35;14.65;;;12.10;;
63406;SDS011;49543;45.892;10.838;2022-10-17T10:42:02;16.58;;;12.27;;
63406;SDS011;49543;45.892;10.838;2022-10-17T10:44:31;15.60;;;13.25;;
63406;SDS011;49543;45.892;10.838;2022-10-17T10:47:14;14.88;;;13.02;;
63406;SDS011;49543;45.892;10.838;2022-10-17T10:49:46;13.82;;;11.35;;
63406;SDS011;49543;45.892;10.838;2022-10-17T10:52:17;14.70;;;12.43;;
63406;SDS011;49543;45.892;10.838;2022-10-17T10:54:50;14.88;;;11.75;;
63406;SDS011;49543;45.892;10.838;2022-10-17T10:57:22;15.52;;;13.45;;
63406;SDS011;49543;45.892;10.838;2022-10-17T11:00:05;12.93;;;11.63;;
63406;SDS011;49543;45.892;10.838;2022-10-17T11:02:44;14.87;;;12.83;;
63406;SDS011;49543;45.892;10.838;2022-10-17T11:07:57;11.82;;;10.57;;
63406;SDS011;49543;45.892;10.838;2022-10-17T11:11:02;15.23;;;13.20;;
63406;SDS011;49543;45.892;10.838;2022-10-17T11:13:43;15.93;;;11.35;;
63406;SDS011;49543;45.892;10.838;2022-10-17T11:24:35;22.67;;;17.70;;
63406;SDS011;49543;45.892;10.838;2022-10-17T11:27:03;23.98;;;17.65;;
63406;SDS011;49543;45.892;10.838;2022-10-17T11:29:31;20.15;;;16.30;;
63406;SDS011;49543;45.892;10.838;2022-10-17T11:32:22;24.47;;;18.50;;
63406;SDS011;49543;45.892;10.838;2022-10-17T11:34:57;21.23;;;17.20;;
63406;SDS011;49543;45.892;10.838;2022-10-17T11:37:30;26.58;;;19.02;;
63406;SDS011;49543;45.892;10.838;2022-10-17T11:40:00;22.83;;;18.08;;
63406;SDS011;49543;45.892;10.838;2022-10-17T11:42:34;22.30;;;18.13;;
63406;SDS011;49543;45.892;10.838;2022-10-17T11:45:10;29.92;;;19.95;;
63406;SDS011;49543;45.892;10.838;2022-10-17T16:21:27;16.45;;;13.35;;
63406;SDS011;49543;45.892;10.838;2022-10-17T16:23:55;17.95;;;14.30;;
63406;SDS011;49543;45.892;10.838;2022-10-17T16:26:21;18.58;;;14.13;;
63406;SDS011;49543;45.892;10.838;2022-10-17T16:28:47;22.15;;;17.02;;
63406;SDS011;49543;45.892;10.838;2022-10-17T16:31:32;20.83;;;17.02;;
63406;SDS011;49543;45.892;10.838;2022-10-17T16:33:59;21.85;;;15.00;;
63406;SDS011;49543;45.892;10.838;2022-10-17T16:36:27;20.30;;;16.30;;
63406;SDS011;49543;45.892;10.838;2022-10-17T16:38:52;24.35;;;16.23;;
63406;SDS011;49543;45.892;10.838;2022-10-17T16:41:20;20.40;;;14.40;;
63406;SDS011;49543;45.892;10.838;2022-10-17T16:43:49;23.17;;;17.63;;
63406;SDS011;49543;45.892;10.838;2022-10-17T16:46:16;20.58;;;16.27;;
63406;SDS011;49543;45.892;10.838;2022-10-17T16:48:43;20.73;;;14.85;;
63406;SDS011;49543;45.892;10.838;2022-10-17T16:51:09;22.67;;;15.82;;
63406;SDS011;49543;45.892;10.838;2022-10-17T16:53:36;20.15;;;15.15;;
63406;SDS011;49543;45.892;10.838;2022-10-17T16:56:07;17.92;;;14.70;;
63406;SDS011;49543;45.892;10.838;2022-10-17T16:58:34;18.35;;;15.45;;
63406;SDS011;49543;45.892;10.838;2022-10-17T17:01:05;18.70;;;14.10;;
63406;SDS011;49543;45.892;10.838;2022-10-17T17:03:37;18.15;;;14.73;;
63406;SDS011;49543;45.892;10.838;2022-10-17T17:06:04;19.60;;;16.38;;
63406;SDS011;49543;45.892;10.838;2022-10-17T17:08:33;23.75;;;17.00;;
63406;SDS011;49543;45.892;10.838;2022-10-17T17:11:05;22.13;;;15.20;;
63406;SDS011;49543;45.892;10.838;2022-10-17T17:13:31;18.13;;;15.18;;
63406;SDS011;49543;45.892;10.838;2022-10-17T17:16:05;19.70;;;16.00;;
63406;SDS011;49543;45.892;10.838;2022-10-17T17:18:33;21.13;;;15.90;;
63406;SDS011;49543;45.892;10.838;2022-10-17T17:21:00;19.73;;;15.57;;
63406;SDS011;49543;45.892;10.838;2022-10-17T17:23:27;18.95;;;14.60;;
63406;SDS011;49543;45.892;10.838;2022-10-17T17:26:00;24.45;;;15.73;;
63406;SDS011;49543;45.892;10.838;2022-10-17T17:28:31;22.00;;;15.82;;
63406;SDS011;49543;45.892;10.838;2022-10-17T17:30:58;22.27;;;16.30;;
63406;SDS011;49543;45.892;10.838;2022-10-17T17:33:23;25.40;;;18.20;;
63406;SDS011;49543;45.892;10.838;2022-10-17T17:35:53;23.70;;;16.63;;
63406;SDS011;49543;45.892;10.838;2022-10-17T17:38:24;21.80;;;16.90;;
63406;SDS011;49543;45.892;10.838;2022-10-17T17:40:50;21.50;;;16.75;;
63406;SDS011;49543;45.892;10.838;2022-10-17T17:43:16;25.70;;;18.52;;
63406;SDS011;49543;45.892;10.838;2022-10-17T17:45:41;26.98;;;19.85;;
63406;SDS011;49543;45.892;10.838;2022-10-17T17:48:07;26.50;;;18.08;;
63406;SDS011;49543;45.892;10.838;2022-10-17T17:50:35;22.42;;;16.73;;
63406;SDS011;49543;45.892;10.838;2022-10-17T17:53:01;23.90;;;17.30;;
63406;SDS011;49543;45.892;10.838;2022-10-17T17:55:27;23.75;;;16.90;;
63406;SDS011;49543;45.892;10.838;2022-10-17T17:57:52;20.30;;;15.57;;
63406;SDS011;49543;45.892;10.838;2022-10-17T18:00:18;25.58;;;17.77;;
63406;SDS011;49543;45.892;10.838;2022-10-17T18:02:43;24.45;;;16.90;;
63406;SDS011;49543;45.892;10.838;2022-10-17T18:05:08;24.60;;;17.90;;
63406;SDS011;49543;45.892;10.838;2022-10-17T18:07:35;23.25;;;17.70;;
63406;SDS011;49543;45.892;10.838;2022-10-17T18:10:01;28.88;;;20.83;;
63406;SDS011;49543;45.892;10.838;2022-10-17T18:12:28;28.02;;;22.48;;
63406;SDS011;49543;45.892;10.838;2022-10-17T18:14:54;27.35;;;20.38;;
63406;SDS011;49543;45.892;10.838;2022-10-17T18:17:20;23.77;;;18.48;;
63406;SDS011;49543;45.892;10.838;2022-10-17T19:26:53;20.20;;;15.35;;
63406;SDS011;49543;45.892;10.838;2022-10-17T19:29:21;21.70;;;15.93;;
63406;SDS011;49543;45.892;10.838;2022-10-17T19:31:48;24.92;;;16.70;;
63406;SDS011;49543;45.892;10.838;2022-10-17T19:34:14;24.67;;;16.35;;
63406;SDS011;49543;45.892;10.838;2022-10-17T19:36:40;20.02;;;14.88;;
63406;SDS011;49543;45.892;10.838;2022-10-17T19:39:08;22.15;;;15.48;;
63406;SDS011;49543;45.892;10.838;2022-10-17T19:41:36;22.58;;;16.38;;
63406;SDS011;49543;45.892;10.838;2022-10-17T19:44:03;20.00;;;15.77;;
63406;SDS011;49543;45.892;10.838;2022-10-17T19:46:29;20.40;;;15.73;;
63406;SDS011;49543;45.892;10.838;2022-10-17T19:48:55;23.65;;;17.48;;
63406;SDS011;49543;45.892;10.838;2022-10-17T19:51:22;23.20;;;16.85;;
63406;SDS011;49543;45.892;10.838;2022-10-17T19:53:48;21.30;;;16.17;;
63406;SDS011;49543;45.892;10.838;2022-10-17T19:56:16;21.02;;;16.00;;
63406;SDS011;49543;45.892;10.838;2022-10-17T19:58:43;20.35;;;15.43;;
63406;SDS011;49543;45.892;10.838;2022-10-17T20:01:14;20.08;;;15.48;;
63406;SDS011;49543;45.892;10.838;2022-10-17T20:03:45;21.88;;;16.85;;
63406;SDS011;49543;45.892;10.838;2022-10-17T20:06:11;19.95;;;15.95;;
63406;SDS011;49543;45.892;10.838;2022-10-17T20:08:37;19.50;;;14.35;;
63406;SDS011;49543;45.892;10.838;2022-10-17T20:11:04;21.15;;;15.70;;
63406;SDS011;49543;45.892;10.838;2022-10-17T20:13:34;19.90;;;15.52;;
63406;SDS011;49543;45.892;10.838;2022-10-17T20:16:01;21.35;;;15.50;;
63406;SDS011;49543;45.892;10.838;2022-10-17T20:18:28;24.17;;;17.25;;
63406;SDS011;49543;45.892;10.838;2022-10-17T20:20:53;23.70;;;17.17;;
63406;SDS011;49543;45.892;10.838;2022-10-17T20:23:20;20.98;;;16.38;;
63406;SDS011;49543;45.892;10.838;2022-10-17T20:25:46;29.25;;;20.08;;
63406;SDS011;49543;45.892;10.838;2022-10-17T20:28:11;27.10;;;19.33;;
63406;SDS011;49543;45.892;10.838;2022-10-17T20:30:41;28.50;;;19.80;;
63406;SDS011;49543;45.892;10.838;2022-10-17T20:33:08;27.92;;;20.08;;
63406;SDS011;49543;45.892;10.838;2022-10-17T20:35:34;24.67;;;19.38;;
63406;SDS011;49543;45.892;10.838;2022-10-17T20:38:04;25.60;;;19.30;;
63406;SDS011;49543;45.892;10.838;2022-10-17T20:40:30;34.88;;;23.00;;
63406;SDS011;49543;45.892;10.838;2022-10-17T20:42:55;30.25;;;22.65;;
63406;SDS011;49543;45.892;10.838;2022-10-17T20:45:37;28.95;;;21.08;;
63406;SDS011;49543;45.892;10.838;2022-10-17T20:48:12;28.85;;;19.85;;
63406;SDS011;49543;45.892;10.838;2022-10-17T20:50:41;25.95;;;18.42;;
63406;SDS011;49543;45.892;10.838;2022-10-17T20:53:10;27.40;;;19.07;;
63406;SDS011;49543;45.892;10.838;2022-10-17T20:55:46;26.58;;;19.10;;
63406;SDS011;49543;45.892;10.838;2022-10-17T20:58:12;30.17;;;19.52;;
63406;SDS011;49543;45.892;10.838;2022-10-17T21:00:38;31.50;;;21.63;;
63406;SDS011;49543;45.892;10.838;2022-10-17T21:03:04;34.47;;;23.73;;
63406;SDS011;49543;45.892;10.838;2022-10-17T21:05:30;31.00;;;22.55;;
63406;SDS011;49543;45.892;10.838;2022-10-17T21:07:55;31.67;;;21.52;;
63406;SDS011;49543;45.892;10.838;2022-10-17T21:10:21;31.70;;;21.85;;
63406;SDS011;49543;45.892;10.838;2022-10-17T21:12:46;29.90;;;21.95;;
63406;SDS011;49543;45.892;10.838;2022-10-17T21:15:12;29.50;;;21.70;;
63406;SDS011;49543;45.892;10.838;2022-10-17T21:17:37;27.60;;;19.55;;
63406;SDS011;49543;45.892;10.838;2022-10-17T21:20:03;28.85;;;20.48;;
63406;SDS011;49543;45.892;10.838;2022-10-17T21:22:29;30.30;;;22.45;;
63406;SDS011;49543;45.892;10.838;2022-10-17T21:24:54;28.98;;;21.08;;
63406;SDS011;49543;45.892;10.838;2022-10-17T21:27:20;25.38;;;18.25;;
63406;SDS011;49543;45.892;10.838;2022-10-17T21:29:46;23.33;;;17.13;;
63406;SDS011;49543;45.892;10.838;2022-10-17T21:32:11;26.35;;;18.48;;
63406;SDS011;49543;45.892;10.838;2022-10-17T21:34:37;30.00;;;20.20;;
63406;SDS011;49543;45.892;10.838;2022-10-17T21:37:03;28.25;;;21.27;;
63406;SDS011;49543;45.892;10.838;2022-10-17T21:39:29;28.25;;;19.40;;
63406;SDS011;49543;45.892;10.838;2022-10-17T21:41:54;33.92;;;23.35;;
63406;SDS011;49543;45.892;10.838;2022-10-17T21:44:21;29.40;;;20.85;;
